createdAt,value
2022-09-26T00:00:05.797Z,100.00
2022-09-26T00:07:21.811Z,100.00
2022-09-26T00:10:51.436Z,100.00
2022-09-26T00:14:02.678Z,100.00
2022-09-26T00:20:31.871Z,100.00
2022-09-26T00:49:33.517Z,100.00
2022-09-26T01:15:16.427Z,100.00
2022-09-26T01:30:07.764Z,100.00
2022-09-26T02:35:58.985Z,100.00
2022-09-26T02:51:29.265Z,100.00
2022-09-26T02:54:51.687Z,100.00
2022-09-26T02:57:41.380Z,100.00
2022-09-26T03:01:09.470Z,100.00
2022-09-26T03:08:41.420Z,100.00
2022-09-26T03:12:48.210Z,100.00
2022-09-26T03:19:32.180Z,100.00
2022-09-26T03:23:23.164Z,100.00
2022-09-26T03:27:09.914Z,100.00
2022-09-26T03:29:39.618Z,100.00
2022-09-26T03:32:36.700Z,100.00
2022-09-26T03:35:27.425Z,100.00
2022-09-26T03:38:30.235Z,100.00
2022-09-26T03:44:53.931Z,100.00
2022-09-26T03:50:39.074Z,100.00
2022-09-26T03:54:07.419Z,100.00
2022-09-26T03:57:40.494Z,100.00
2022-09-26T04:00:19.765Z,100.00
2022-09-26T04:03:10.724Z,100.00
2022-09-26T04:09:00.478Z,100.00
2022-09-26T04:12:29.760Z,100.00
2022-09-26T04:14:49.871Z,100.00
2022-09-26T04:21:09.969Z,100.00
2022-09-26T04:24:39.350Z,100.00
2022-09-26T04:42:10.683Z,100.00
2022-09-26T04:44:53.653Z,100.00
2022-09-26T04:47:36.143Z,100.00
2022-09-26T04:50:05.003Z,100.00
2022-09-26T04:52:33.886Z,100.00
2022-09-26T04:55:02.339Z,100.00
2022-09-26T04:57:36.411Z,100.00
2022-09-26T05:00:10.032Z,100.00
2022-09-26T05:02:38.682Z,100.00
2022-09-26T05:05:08.940Z,100.00
2022-09-26T05:07:41.497Z,100.00
2022-09-26T05:10:11.828Z,100.00
2022-09-26T05:12:42.092Z,100.00
2022-09-26T05:15:12.289Z,100.00
2022-09-26T05:17:45.346Z,100.00
2022-09-26T05:20:14.595Z,100.00
2022-09-26T05:22:45.581Z,100.00
2022-09-26T05:25:35.627Z,100.00
2022-09-26T05:28:05.670Z,100.00
2022-09-26T05:30:36.006Z,100.00
2022-09-26T05:33:04.849Z,100.00
2022-09-26T05:35:35.156Z,100.00
2022-09-26T05:38:06.291Z,100.00
2022-09-26T05:40:52.360Z,100.00
2022-09-26T05:43:22.873Z,100.00
2022-09-26T05:45:51.580Z,100.00
2022-09-26T05:48:21.088Z,100.00
2022-09-26T05:50:49.450Z,100.00
2022-09-26T05:53:20.717Z,100.00
2022-09-26T05:57:25.249Z,100.00
2022-09-26T05:59:53.708Z,100.00
2022-09-26T06:02:22.791Z,100.00
2022-09-26T06:04:51.677Z,100.00
2022-09-26T06:07:22.298Z,100.00
2022-09-26T06:09:51.494Z,100.00
2022-09-26T06:12:20.605Z,100.00
2022-09-26T06:14:50.582Z,100.00
2022-09-26T06:17:19.346Z,100.00
2022-09-26T06:19:48.189Z,100.00
2022-09-26T06:22:16.415Z,100.00
2022-09-26T06:24:44.923Z,100.00
2022-09-26T06:27:13.536Z,100.00
2022-09-26T06:29:41.835Z,100.00
2022-09-26T06:32:11.532Z,100.00
2022-09-26T06:34:40.741Z,100.00
2022-09-26T06:37:09.301Z,100.00
2022-09-26T06:39:37.703Z,100.00
2022-09-26T06:42:07.581Z,100.00
2022-09-26T06:44:37.258Z,100.00
2022-09-26T06:47:05.912Z,100.00
2022-09-26T06:49:38.509Z,100.00
2022-09-26T06:52:07.156Z,100.00
2022-09-26T06:54:35.902Z,100.00
2022-09-26T06:57:04.068Z,100.00
2022-09-26T06:59:32.675Z,100.00
2022-09-26T07:02:03.328Z,100.00
2022-09-26T07:04:31.769Z,100.00
2022-09-26T07:07:01.582Z,100.00
2022-09-26T07:09:30.287Z,100.00
2022-09-26T07:12:15.799Z,100.00
2022-09-26T07:14:47.115Z,100.00
2022-09-26T07:17:19.373Z,100.00
2022-09-26T07:19:53.167Z,100.00
2022-09-26T07:22:23.438Z,99.34
2022-09-26T07:24:52.071Z,96.83
2022-09-26T07:27:22.352Z,95.14
2022-09-26T07:29:53.810Z,92.92
2022-09-26T07:32:25.671Z,90.89
2022-09-26T07:34:54.541Z,87.61
2022-09-26T07:37:25.145Z,87.32
2022-09-26T07:40:01.301Z,89.85
2022-09-26T07:42:30.089Z,94.29
2022-09-26T07:48:07.693Z,100.00
2022-09-26T07:50:36.287Z,100.00
2022-09-26T07:53:06.269Z,100.00
2022-09-26T07:55:55.025Z,100.00
2022-09-26T07:58:26.109Z,100.00
2022-09-26T08:00:54.546Z,100.00
2022-09-26T08:03:26.401Z,100.00
2022-09-26T08:08:07.294Z,93.19
2022-09-26T08:10:36.024Z,92.63
2022-09-26T08:13:04.340Z,92.60
2022-09-26T08:15:35.233Z,92.38
2022-09-26T08:18:04.823Z,92.46
2022-09-26T08:20:34.426Z,91.52
2022-09-26T08:23:02.931Z,90.29
2022-09-26T08:25:35.543Z,89.25
2022-09-26T08:28:12.580Z,89.09
2022-09-26T08:30:40.984Z,90.66
2022-09-26T08:33:12.720Z,94.41
2022-09-26T08:35:41.197Z,94.80
2022-09-26T08:38:15.766Z,95.72
2022-09-26T08:40:54.674Z,97.70
2022-09-26T08:43:40.082Z,98.82
2022-09-26T08:46:45.370Z,99.37
2022-09-26T08:49:41.851Z,100.00
2022-09-26T08:52:23.930Z,100.00
2022-09-26T08:54:54.782Z,100.00
2022-09-26T08:57:34.894Z,100.00
2022-09-26T09:00:11.943Z,100.00
2022-09-26T09:02:49.115Z,99.36
2022-09-26T09:05:23.871Z,97.99
2022-09-26T09:07:58.698Z,97.90
2022-09-26T09:10:45.381Z,96.19
2022-09-26T09:13:32.446Z,92.15
2022-09-26T09:16:23.263Z,83.66
2022-09-26T09:19:00.093Z,82.36
2022-09-26T09:21:42.196Z,80.92
2022-09-26T09:24:19.495Z,78.66
2022-09-26T09:31:55.296Z,71.13
2022-09-26T09:34:29.846Z,70.15
2022-09-26T09:37:01.077Z,65.68
2022-09-26T09:39:55.476Z,61.75
2022-09-26T09:42:29.415Z,62.07
2022-09-26T09:46:36.293Z,65.50
2022-09-26T09:49:21.376Z,63.64
2022-09-26T09:52:02.989Z,63.30
2022-09-26T09:54:53.420Z,63.33
2022-09-26T09:57:44.603Z,63.55
2022-09-26T10:00:20.237Z,63.55
2022-09-26T10:03:02.430Z,63.60
2022-09-26T10:05:39.222Z,63.49
2022-09-26T10:08:13.854Z,63.71
2022-09-26T10:10:51.365Z,63.44
2022-09-26T10:13:22.515Z,63.85
2022-09-26T10:15:58.307Z,63.78
2022-09-26T10:18:28.910Z,63.59
2022-09-26T10:21:00.297Z,63.86
2022-09-26T10:23:34.018Z,63.77
2022-09-26T10:26:05.355Z,63.47
2022-09-26T10:28:37.914Z,63.51
2022-09-26T10:31:12.108Z,63.33
2022-09-26T10:33:46.362Z,63.28
2022-09-26T10:36:21.216Z,63.44
2022-09-26T10:39:10.636Z,63.22
2022-09-26T10:41:45.385Z,63.56
2022-09-26T10:44:24.503Z,63.43
2022-09-26T10:46:58.372Z,63.47
2022-09-26T10:49:37.015Z,63.74
2022-09-26T10:52:18.184Z,60.45
2022-09-26T10:54:57.367Z,60.84
2022-09-26T10:57:30.753Z,61.78
2022-09-26T11:00:01.209Z,62.35
2022-09-26T11:02:30.121Z,62.53
2022-09-26T11:05:19.631Z,62.40
2022-09-26T11:07:49.662Z,62.10
2022-09-26T11:10:25.720Z,62.29
2022-09-26T11:13:04.088Z,62.05
2022-09-26T11:15:33.325Z,62.05
2022-09-26T11:18:02.102Z,62.02
2022-09-26T11:20:46.508Z,61.99
2022-09-26T11:23:29.893Z,62.40
2022-09-26T11:26:07.292Z,61.96
2022-09-26T11:28:42.618Z,61.65
2022-09-26T11:31:25.261Z,61.54
2022-09-26T11:33:55.347Z,61.96
2022-09-26T11:36:45.361Z,62.05
2022-09-26T11:39:30.405Z,61.96
2022-09-26T11:42:13.783Z,61.87
2022-09-26T11:44:58.034Z,62.38
2022-09-26T11:47:41.806Z,62.30
2022-09-26T11:50:29.010Z,62.51
2022-09-26T11:53:15.270Z,62.17
2022-09-26T11:55:58.577Z,62.29
2022-09-26T11:58:41.647Z,62.36
2022-09-26T12:01:22.651Z,62.50
2022-09-26T12:04:17.219Z,62.43
2022-09-26T12:06:55.527Z,62.57
2022-09-26T12:09:47.520Z,62.54
2022-09-26T12:12:24.671Z,62.78
2022-09-26T12:15:15.187Z,62.12
2022-09-26T12:17:59.707Z,62.85
2022-09-26T12:20:35.787Z,62.17
2022-09-26T12:23:15.119Z,62.43
2022-09-26T12:25:57.088Z,62.64
2022-09-26T12:28:45.316Z,62.21
2022-09-26T12:31:21.107Z,62.40
2022-09-26T12:34:11.401Z,61.95
2022-09-26T12:36:56.435Z,62.26
2022-09-26T12:39:58.592Z,62.50
2022-09-26T12:42:48.873Z,62.53
2022-09-26T12:45:42.427Z,62.64
2022-09-26T12:48:29.752Z,62.49
2022-09-26T12:51:15.532Z,62.15
2022-09-26T12:54:33.293Z,62.28
2022-09-26T12:57:11.556Z,62.30
2022-09-26T12:59:59.584Z,62.52
2022-09-26T13:02:55.888Z,62.27
2022-09-26T13:05:39.478Z,62.67
2022-09-26T13:08:17.020Z,62.41
2022-09-26T13:11:01.729Z,62.49
2022-09-26T13:13:54.580Z,62.67
2022-09-26T13:16:34.202Z,62.83
2022-09-26T13:19:12.525Z,62.66
2022-09-26T13:21:47.650Z,62.64
2022-09-26T13:24:22.237Z,62.71
2022-09-26T13:26:55.395Z,63.05
2022-09-26T13:29:29.983Z,63.14
2022-09-26T13:32:21.635Z,63.04
2022-09-26T13:34:55.869Z,63.21
2022-09-26T13:37:36.580Z,62.99
2022-09-26T13:40:21.364Z,63.03
2022-09-26T13:43:00.731Z,62.88
2022-09-26T13:45:41.293Z,63.02
2022-09-26T13:48:21.060Z,63.28
2022-09-26T13:50:56.071Z,63.28
2022-09-26T13:53:29.752Z,63.70
2022-09-26T13:56:30.674Z,63.41
2022-09-26T13:59:26.047Z,63.69
2022-09-26T14:02:23.518Z,63.63
2022-09-26T14:04:54.488Z,63.71
2022-09-26T14:07:44.847Z,63.43
2022-09-26T14:10:39.999Z,63.43
2022-09-26T14:13:22.014Z,63.48
2022-09-26T14:15:59.695Z,63.71
2022-09-26T14:18:54.594Z,63.68
2022-09-26T14:21:39.536Z,63.73
2022-09-26T14:24:31.913Z,63.62
2022-09-26T14:27:39.567Z,63.89
2022-09-26T14:30:28.619Z,63.60
2022-09-26T14:33:02.328Z,63.57
2022-09-26T14:35:33.245Z,63.62
2022-09-26T14:38:05.858Z,63.96
2022-09-26T14:40:36.161Z,63.60
2022-09-26T14:43:13.350Z,63.83
2022-09-26T14:45:51.374Z,63.75
2022-09-26T14:48:33.443Z,64.09
2022-09-26T14:51:05.543Z,63.80
2022-09-26T14:53:40.208Z,64.01
2022-09-26T14:56:13.331Z,63.67
2022-09-26T14:58:51.513Z,63.82
2022-09-26T15:01:27.915Z,63.47
2022-09-26T15:03:59.343Z,63.75
2022-09-26T15:06:30.225Z,63.68
2022-09-26T15:09:00.430Z,63.33
2022-09-26T15:11:39.196Z,63.58
2022-09-26T15:14:20.919Z,63.43
2022-09-26T15:16:57.663Z,63.82
2022-09-26T15:19:32.796Z,63.36
2022-09-26T15:22:04.280Z,63.45
2022-09-26T15:24:35.517Z,63.77
2022-09-26T15:27:12.122Z,63.67
2022-09-26T15:29:47.010Z,63.68
2022-09-26T15:32:20.428Z,63.82
2022-09-26T15:34:49.428Z,63.83
2022-09-26T15:37:23.175Z,63.76
2022-09-26T15:39:53.196Z,63.59
2022-09-26T15:42:44.918Z,63.53
2022-09-26T15:45:27.668Z,63.92
2022-09-26T15:47:57.449Z,63.63
2022-09-26T15:50:36.277Z,63.62
2022-09-26T15:53:11.619Z,63.48
2022-09-26T15:55:51.610Z,63.52
2022-09-26T15:58:25.744Z,63.76
2022-09-26T16:00:55.212Z,63.40
2022-09-26T16:03:40.061Z,63.48
2022-09-26T16:06:24.121Z,63.45
2022-09-26T16:08:55.473Z,63.63
2022-09-26T16:11:26.122Z,63.59
2022-09-26T16:13:56.762Z,63.53
2022-09-26T16:16:32.396Z,63.82
2022-09-26T16:19:03.410Z,63.46
2022-09-26T16:21:34.311Z,63.82
2022-09-26T16:24:22.767Z,63.83
2022-09-26T16:26:53.655Z,63.79
2022-09-26T16:29:33.149Z,63.33
2022-09-26T16:32:02.509Z,63.58
2022-09-26T16:34:31.879Z,63.57
2022-09-26T16:37:00.498Z,63.73
2022-09-26T16:39:31.454Z,63.68
2022-09-26T16:42:05.888Z,63.65
2022-09-26T16:44:37.500Z,63.84
2022-09-26T16:47:09.368Z,63.77
2022-09-26T16:49:45.895Z,63.75
2022-09-26T16:52:32.153Z,63.51
2022-09-26T16:55:02.568Z,63.52
2022-09-26T16:57:35.806Z,63.44
2022-09-26T17:00:26.722Z,63.43
2022-09-26T17:02:55.402Z,63.71
2022-09-26T17:05:23.777Z,63.70
2022-09-26T17:07:53.857Z,63.36
2022-09-26T17:10:26.012Z,63.40
2022-09-26T17:12:56.484Z,63.56
2022-09-26T17:15:29.003Z,63.29
2022-09-26T17:17:58.465Z,63.36
2022-09-26T17:20:27.055Z,63.41
2022-09-26T17:22:55.889Z,63.76
2022-09-26T17:25:25.573Z,63.63
2022-09-26T17:27:59.744Z,63.47
2022-09-26T17:30:28.285Z,63.54
2022-09-26T17:32:59.035Z,63.45
2022-09-26T17:35:33.471Z,63.70
2022-09-26T17:38:02.471Z,63.60
2022-09-26T17:40:32.790Z,63.46
2022-09-26T17:43:05.709Z,63.38
2022-09-26T17:45:38.460Z,63.49
2022-09-26T17:48:13.856Z,63.42
2022-09-26T17:50:42.916Z,63.60
2022-09-26T17:53:20.674Z,63.42
2022-09-26T17:55:49.462Z,63.59
2022-09-26T17:58:19.897Z,63.38
2022-09-26T18:00:51.350Z,63.43
2022-09-26T18:03:25.122Z,63.42
2022-09-26T18:05:54.383Z,63.50
2022-09-26T18:08:25.865Z,63.60
2022-09-26T18:10:56.990Z,63.68
2022-09-26T18:13:31.584Z,63.63
2022-09-26T18:16:00.371Z,63.92
2022-09-26T18:18:31.420Z,63.74
2022-09-26T18:21:04.035Z,64.06
2022-09-26T18:23:42.547Z,63.91
2022-09-26T18:26:20.372Z,63.96
2022-09-26T18:28:50.922Z,63.78
2022-09-26T18:31:22.675Z,64.11
2022-09-26T18:33:51.241Z,63.93
2022-09-26T18:36:19.921Z,64.07
2022-09-26T18:38:48.182Z,64.14
2022-09-26T18:41:25.131Z,64.19
2022-09-26T18:44:01.157Z,63.89
2022-09-26T18:46:30.939Z,64.24
2022-09-26T18:49:06.746Z,64.33
2022-09-26T18:51:35.291Z,64.39
2022-09-26T18:54:11.298Z,64.32
2022-09-26T18:56:57.628Z,64.37
2022-09-26T18:59:31.367Z,64.20
2022-09-26T19:02:02.894Z,64.46
2022-09-26T19:04:31.948Z,64.45
2022-09-26T19:07:02.684Z,64.55
2022-09-26T19:09:34.582Z,64.46
2022-09-26T19:12:04.663Z,64.57
2022-09-26T19:14:35.644Z,64.20
2022-09-26T19:17:04.765Z,64.69
2022-09-26T19:19:33.620Z,64.54
2022-09-26T19:22:08.288Z,64.29
2022-09-26T19:24:39.533Z,64.40
2022-09-26T19:27:13.682Z,64.50
2022-09-26T19:29:46.620Z,64.73
2022-09-26T19:32:21.025Z,64.75
2022-09-26T19:34:53.804Z,64.59
2022-09-26T19:37:24.279Z,64.37
2022-09-26T19:39:52.912Z,64.27
2022-09-26T19:42:21.408Z,64.64
2022-09-26T19:44:51.423Z,64.24
2022-09-26T19:47:22.840Z,64.62
2022-09-26T19:49:53.239Z,64.23
2022-09-26T19:52:23.202Z,64.21
2022-09-26T19:54:52.280Z,64.42
2022-09-26T19:57:23.241Z,64.16
2022-09-26T19:59:53.163Z,64.39
2022-09-26T20:02:25.636Z,64.38
2022-09-26T20:04:54.077Z,64.37
2022-09-26T20:07:22.761Z,64.08
2022-09-26T20:09:51.566Z,64.28
2022-09-26T20:12:20.887Z,64.16
2022-09-26T20:14:49.358Z,64.30
2022-09-26T20:17:24.671Z,64.03
2022-09-26T20:19:58.598Z,64.32
2022-09-26T20:22:27.902Z,64.04
2022-09-26T20:24:57.138Z,64.29
2022-09-26T20:27:28.019Z,64.41
2022-09-26T20:30:14.884Z,64.38
2022-09-26T20:32:44.972Z,64.38
2022-09-26T20:35:16.579Z,64.70
2022-09-26T20:37:46.104Z,64.35
2022-09-26T20:40:18.359Z,64.67
2022-09-26T20:42:50.176Z,64.80
2022-09-26T20:45:21.702Z,64.59
2022-09-26T20:47:51.681Z,64.96
2022-09-26T20:50:21.618Z,64.81
2022-09-26T20:52:49.921Z,64.61
2022-09-26T20:55:19.796Z,64.68
2022-09-26T20:57:48.195Z,65.02
2022-09-26T21:00:17.880Z,64.92
2022-09-26T21:02:48.012Z,65.03
2022-09-26T21:05:20.187Z,64.71
2022-09-26T21:07:48.882Z,64.70
